KTI weather

Kratie Airport
Kratie, Krachoh, Cambodia

Public forecast

Using degrees Celsius for public forecast. Weather courtesy of forecast.io.

METAR (pilot weather report)

Closest report is Phnom Penh International Airport, 90.8 nm (168.2 km) SW. Retrieved 2019/02/16 13:30 UTC (5 minutes ago):

VDPP 161330Z 18005KT 9000 FEW017 29/21 Q1011

TAF (pilot weather forecast)

Closest forecast is Phnom Penh International Airport, 90.8 nm (168.2 km) SW. Retrieved 2019/02/16 12:00 UTC (2 hours ago):

TAF VDPP 161100Z 1612/1706 17007KT 9999 SCT017